sensor_id;sensor_type;location;lat;lon;timestamp;P1;durP1;ratioP1;P2;durP2;ratioP2
78844;SDS011;68195;50.854;2.860;2023-04-25T00:00:19;18.80;;;8.15;;
78844;SDS011;68195;50.854;2.860;2023-04-25T00:02:45;19.50;;;8.18;;
78844;SDS011;68195;50.854;2.860;2023-04-25T00:05:15;16.25;;;8.88;;
78844;SDS011;68195;50.854;2.860;2023-04-25T00:07:41;21.42;;;8.55;;
78844;SDS011;68195;50.854;2.860;2023-04-25T00:10:11;15.35;;;8.35;;
78844;SDS011;68195;50.854;2.860;2023-04-25T00:12:37;15.30;;;8.30;;
78844;SDS011;68195;50.854;2.860;2023-04-25T00:15:04;16.77;;;8.48;;
78844;SDS011;68195;50.854;2.860;2023-04-25T00:17:30;16.83;;;8.55;;
78844;SDS011;68195;50.854;2.860;2023-04-25T00:19:56;17.15;;;8.18;;
78844;SDS011;68195;50.854;2.860;2023-04-25T00:22:23;20.38;;;8.82;;
78844;SDS011;68195;50.854;2.860;2023-04-25T00:24:50;19.30;;;8.32;;
78844;SDS011;68195;50.854;2.860;2023-04-25T00:27:21;19.75;;;9.50;;
78844;SDS011;68195;50.854;2.860;2023-04-25T00:29:46;18.75;;;7.63;;
78844;SDS011;68195;50.854;2.860;2023-04-25T00:32:12;21.38;;;9.32;;
78844;SDS011;68195;50.854;2.860;2023-04-25T00:34:39;15.23;;;6.70;;
78844;SDS011;68195;50.854;2.860;2023-04-25T00:37:05;18.20;;;8.68;;
78844;SDS011;68195;50.854;2.860;2023-04-25T00:39:35;15.32;;;7.28;;
78844;SDS011;68195;50.854;2.860;2023-04-25T00:42:00;18.75;;;8.57;;
78844;SDS011;68195;50.854;2.860;2023-04-25T00:44:29;16.95;;;7.25;;
78844;SDS011;68195;50.854;2.860;2023-04-25T00:46:55;17.67;;;6.35;;
78844;SDS011;68195;50.854;2.860;2023-04-25T00:49:23;15.15;;;6.20;;
78844;SDS011;68195;50.854;2.860;2023-04-25T00:51:48;14.27;;;5.60;;
78844;SDS011;68195;50.854;2.860;2023-04-25T00:54:14;14.07;;;5.28;;
78844;SDS011;68195;50.854;2.860;2023-04-25T00:56:44;17.02;;;5.47;;
78844;SDS011;68195;50.854;2.860;2023-04-25T00:59:10;12.80;;;4.72;;
78844;SDS011;68195;50.854;2.860;2023-04-25T01:01:38;9.63;;;4.25;;
78844;SDS011;68195;50.854;2.860;2023-04-25T01:04:04;10.35;;;4.55;;
78844;SDS011;68195;50.854;2.860;2023-04-25T01:06:29;8.43;;;3.80;;
78844;SDS011;68195;50.854;2.860;2023-04-25T01:08:55;11.18;;;4.38;;
78844;SDS011;68195;50.854;2.860;2023-04-25T01:11:21;14.23;;;5.53;;
78844;SDS011;68195;50.854;2.860;2023-04-25T01:13:49;18.83;;;5.80;;
78844;SDS011;68195;50.854;2.860;2023-04-25T01:16:14;11.00;;;4.72;;
78844;SDS011;68195;50.854;2.860;2023-04-25T01:18:42;14.27;;;4.57;;
78844;SDS011;68195;50.854;2.860;2023-04-25T01:21:10;14.82;;;4.93;;
78844;SDS011;68195;50.854;2.860;2023-04-25T01:23:38;12.57;;;4.43;;
78844;SDS011;68195;50.854;2.860;2023-04-25T01:26:05;15.75;;;5.22;;
78844;SDS011;68195;50.854;2.860;2023-04-25T01:28:33;13.70;;;5.88;;
78844;SDS011;68195;50.854;2.860;2023-04-25T01:31:01;12.88;;;5.38;;
78844;SDS011;68195;50.854;2.860;2023-04-25T01:33:29;13.68;;;5.57;;
78844;SDS011;68195;50.854;2.860;2023-04-25T01:35:55;21.90;;;6.65;;
78844;SDS011;68195;50.854;2.860;2023-04-25T01:38:20;14.98;;;5.55;;
78844;SDS011;68195;50.854;2.860;2023-04-25T01:40:46;17.25;;;4.57;;
78844;SDS011;68195;50.854;2.860;2023-04-25T01:43:12;14.90;;;5.43;;
78844;SDS011;68195;50.854;2.860;2023-04-25T01:45:41;11.25;;;4.78;;
78844;SDS011;68195;50.854;2.860;2023-04-25T01:48:08;14.93;;;6.25;;
78844;SDS011;68195;50.854;2.860;2023-04-25T01:50:34;12.38;;;5.05;;
78844;SDS011;68195;50.854;2.860;2023-04-25T01:53:02;13.10;;;5.00;;
78844;SDS011;68195;50.854;2.860;2023-04-25T01:55:28;11.80;;;4.93;;
78844;SDS011;68195;50.854;2.860;2023-04-25T01:57:54;19.80;;;5.68;;
78844;SDS011;68195;50.854;2.860;2023-04-25T02:00:22;12.68;;;4.55;;
78844;SDS011;68195;50.854;2.860;2023-04-25T02:02:48;20.88;;;4.68;;
78844;SDS011;68195;50.854;2.860;2023-04-25T02:05:18;13.27;;;4.65;;
78844;SDS011;68195;50.854;2.860;2023-04-25T02:07:46;12.10;;;4.47;;
78844;SDS011;68195;50.854;2.860;2023-04-25T02:10:14;17.00;;;4.82;;
78844;SDS011;68195;50.854;2.860;2023-04-25T02:12:40;11.35;;;4.30;;
78844;SDS011;68195;50.854;2.860;2023-04-25T02:15:05;14.13;;;4.10;;
78844;SDS011;68195;50.854;2.860;2023-04-25T02:17:34;9.93;;;3.70;;
78844;SDS011;68195;50.854;2.860;2023-04-25T02:20:05;14.45;;;4.43;;
78844;SDS011;68195;50.854;2.860;2023-04-25T02:22:31;14.45;;;5.30;;
78844;SDS011;68195;50.854;2.860;2023-04-25T02:24:56;18.33;;;5.60;;
78844;SDS011;68195;50.854;2.860;2023-04-25T02:27:21;14.00;;;5.43;;
78844;SDS011;68195;50.854;2.860;2023-04-25T02:29:47;14.10;;;4.90;;
78844;SDS011;68195;50.854;2.860;2023-04-25T02:32:17;11.95;;;4.13;;
78844;SDS011;68195;50.854;2.860;2023-04-25T02:34:47;10.50;;;4.13;;
78844;SDS011;68195;50.854;2.860;2023-04-25T02:37:13;12.00;;;4.38;;
78844;SDS011;68195;50.854;2.860;2023-04-25T02:39:38;11.48;;;5.07;;
78844;SDS011;68195;50.854;2.860;2023-04-25T02:42:06;12.95;;;4.50;;
78844;SDS011;68195;50.854;2.860;2023-04-25T02:44:31;11.40;;;4.90;;
78844;SDS011;68195;50.854;2.860;2023-04-25T02:46:57;10.40;;;3.75;;
78844;SDS011;68195;50.854;2.860;2023-04-25T02:49:25;15.40;;;4.25;;
78844;SDS011;68195;50.854;2.860;2023-04-25T02:51:50;13.07;;;4.28;;
78844;SDS011;68195;50.854;2.860;2023-04-25T02:54:18;14.43;;;5.60;;
78844;SDS011;68195;50.854;2.860;2023-04-25T02:56:46;12.35;;;3.95;;
78844;SDS011;68195;50.854;2.860;2023-04-25T02:59:14;13.73;;;5.68;;
78844;SDS011;68195;50.854;2.860;2023-04-25T03:01:39;13.32;;;5.80;;
78844;SDS011;68195;50.854;2.860;2023-04-25T03:04:04;11.30;;;5.70;;
78844;SDS011;68195;50.854;2.860;2023-04-25T03:06:30;9.52;;;4.30;;
78844;SDS011;68195;50.854;2.860;2023-04-25T03:08:55;14.63;;;3.83;;
78844;SDS011;68195;50.854;2.860;2023-04-25T03:11:21;10.85;;;3.33;;
78844;SDS011;68195;50.854;2.860;2023-04-25T03:13:48;10.27;;;3.60;;
78844;SDS011;68195;50.854;2.860;2023-04-25T03:16:14;7.43;;;4.27;;
78844;SDS011;68195;50.854;2.860;2023-04-25T03:18:39;14.07;;;3.97;;
78844;SDS011;68195;50.854;2.860;2023-04-25T03:21:04;10.82;;;4.32;;
78844;SDS011;68195;50.854;2.860;2023-04-25T03:23:30;11.98;;;3.40;;
78844;SDS011;68195;50.854;2.860;2023-04-25T03:25:55;10.35;;;4.40;;
78844;SDS011;68195;50.854;2.860;2023-04-25T03:28:21;11.40;;;3.40;;
78844;SDS011;68195;50.854;2.860;2023-04-25T03:30:47;11.32;;;3.58;;
78844;SDS011;68195;50.854;2.860;2023-04-25T03:33:14;14.25;;;3.83;;
78844;SDS011;68195;50.854;2.860;2023-04-25T03:35:40;10.07;;;3.65;;
78844;SDS011;68195;50.854;2.860;2023-04-25T03:38:05;7.53;;;3.60;;
78844;SDS011;68195;50.854;2.860;2023-04-25T03:40:30;10.70;;;3.65;;
78844;SDS011;68195;50.854;2.860;2023-04-25T03:42:58;11.23;;;5.07;;
78844;SDS011;68195;50.854;2.860;2023-04-25T03:45:23;10.02;;;3.65;;
78844;SDS011;68195;50.854;2.860;2023-04-25T03:47:49;12.20;;;4.60;;
78844;SDS011;68195;50.854;2.860;2023-04-25T03:50:17;10.57;;;4.07;;
78844;SDS011;68195;50.854;2.860;2023-04-25T03:52:45;10.18;;;5.05;;
78844;SDS011;68195;50.854;2.860;2023-04-25T03:55:10;8.18;;;3.72;;
78844;SDS011;68195;50.854;2.860;2023-04-25T03:57:36;15.57;;;5.18;;
78844;SDS011;68195;50.854;2.860;2023-04-25T04:00:03;11.57;;;4.43;;
78844;SDS011;68195;50.854;2.860;2023-04-25T04:02:32;15.00;;;4.63;;
78844;SDS011;68195;50.854;2.860;2023-04-25T04:04:59;12.05;;;4.57;;
78844;SDS011;68195;50.854;2.860;2023-04-25T04:07:27;12.60;;;5.07;;
78844;SDS011;68195;50.854;2.860;2023-04-25T04:09:53;15.98;;;4.38;;
78844;SDS011;68195;50.854;2.860;2023-04-25T04:12:18;12.35;;;3.50;;
78844;SDS011;68195;50.854;2.860;2023-04-25T04:14:43;9.70;;;4.00;;
78844;SDS011;68195;50.854;2.860;2023-04-25T04:17:09;15.32;;;4.13;;
78844;SDS011;68195;50.854;2.860;2023-04-25T04:19:37;9.32;;;4.38;;
78844;SDS011;68195;50.854;2.860;2023-04-25T04:22:02;8.88;;;3.35;;
78844;SDS011;68195;50.854;2.860;2023-04-25T04:24:27;12.93;;;4.18;;
78844;SDS011;68195;50.854;2.860;2023-04-25T04:26:55;10.55;;;4.10;;
78844;SDS011;68195;50.854;2.860;2023-04-25T04:29:24;8.68;;;3.90;;
78844;SDS011;68195;50.854;2.860;2023-04-25T04:31:50;11.32;;;3.55;;
78844;SDS011;68195;50.854;2.860;2023-04-25T04:34:21;9.90;;;3.97;;
78844;SDS011;68195;50.854;2.860;2023-04-25T04:36:47;10.90;;;4.85;;
78844;SDS011;68195;50.854;2.860;2023-04-25T04:39:15;11.65;;;4.70;;
78844;SDS011;68195;50.854;2.860;2023-04-25T04:41:40;9.80;;;3.65;;
78844;SDS011;68195;50.854;2.860;2023-04-25T04:44:06;14.02;;;4.55;;
78844;SDS011;68195;50.854;2.860;2023-04-25T04:46:39;13.40;;;4.88;;
78844;SDS011;68195;50.854;2.860;2023-04-25T04:49:09;9.57;;;4.15;;
78844;SDS011;68195;50.854;2.860;2023-04-25T04:51:38;9.77;;;4.15;;
78844;SDS011;68195;50.854;2.860;2023-04-25T04:54:08;14.10;;;4.60;;
78844;SDS011;68195;50.854;2.860;2023-04-25T04:56:33;8.82;;;3.83;;
78844;SDS011;68195;50.854;2.860;2023-04-25T04:59:01;7.68;;;3.90;;
78844;SDS011;68195;50.854;2.860;2023-04-25T05:01:28;8.13;;;3.67;;
78844;SDS011;68195;50.854;2.860;2023-04-25T05:03:56;9.10;;;3.78;;
78844;SDS011;68195;50.854;2.860;2023-04-25T05:06:25;7.50;;;3.30;;
78844;SDS011;68195;50.854;2.860;2023-04-25T05:08:52;8.23;;;3.88;;
78844;SDS011;68195;50.854;2.860;2023-04-25T05:11:17;8.07;;;3.53;;
78844;SDS011;68195;50.854;2.860;2023-04-25T05:13:43;10.52;;;4.45;;
78844;SDS011;68195;50.854;2.860;2023-04-25T05:16:09;12.70;;;4.05;;
78844;SDS011;68195;50.854;2.860;2023-04-25T05:18:34;8.77;;;3.72;;
78844;SDS011;68195;50.854;2.860;2023-04-25T05:21:02;6.93;;;3.38;;
78844;SDS011;68195;50.854;2.860;2023-04-25T05:23:27;12.20;;;3.40;;
78844;SDS011;68195;50.854;2.860;2023-04-25T05:25:54;7.63;;;3.65;;
78844;SDS011;68195;50.854;2.860;2023-04-25T05:28:19;8.75;;;3.75;;
78844;SDS011;68195;50.854;2.860;2023-04-25T05:30:46;8.23;;;4.60;;
78844;SDS011;68195;50.854;2.860;2023-04-25T05:33:11;7.00;;;3.22;;
78844;SDS011;68195;50.854;2.860;2023-04-25T05:35:36;14.52;;;3.95;;
78844;SDS011;68195;50.854;2.860;2023-04-25T05:38:02;9.73;;;4.10;;
78844;SDS011;68195;50.854;2.860;2023-04-25T05:40:30;12.93;;;4.68;;
78844;SDS011;68195;50.854;2.860;2023-04-25T05:42:55;12.68;;;5.07;;
78844;SDS011;68195;50.854;2.860;2023-04-25T05:45:20;10.88;;;4.07;;
78844;SDS011;68195;50.854;2.860;2023-04-25T05:47:46;10.95;;;4.10;;
78844;SDS011;68195;50.854;2.860;2023-04-25T05:50:11;7.50;;;3.30;;
78844;SDS011;68195;50.854;2.860;2023-04-25T05:52:39;9.38;;;3.75;;
78844;SDS011;68195;50.854;2.860;2023-04-25T05:55:05;13.45;;;4.10;;
78844;SDS011;68195;50.854;2.860;2023-04-25T05:57:33;11.98;;;3.58;;
78844;SDS011;68195;50.854;2.860;2023-04-25T05:59:58;7.53;;;2.80;;
78844;SDS011;68195;50.854;2.860;2023-04-25T06:02:24;8.70;;;3.33;;
78844;SDS011;68195;50.854;2.860;2023-04-25T06:04:49;10.07;;;3.45;;
78844;SDS011;68195;50.854;2.860;2023-04-25T06:07:16;7.35;;;3.53;;
78844;SDS011;68195;50.854;2.860;2023-04-25T06:09:44;11.40;;;3.75;;
78844;SDS011;68195;50.854;2.860;2023-04-25T06:12:09;13.80;;;3.13;;
78844;SDS011;68195;50.854;2.860;2023-04-25T06:14:35;6.65;;;3.10;;
78844;SDS011;68195;50.854;2.860;2023-04-25T06:17:03;8.77;;;2.88;;
78844;SDS011;68195;50.854;2.860;2023-04-25T06:19:35;10.15;;;3.40;;
78844;SDS011;68195;50.854;2.860;2023-04-25T06:22:01;7.82;;;3.13;;
78844;SDS011;68195;50.854;2.860;2023-04-25T06:24:27;7.95;;;3.33;;
78844;SDS011;68195;50.854;2.860;2023-04-25T06:26:52;5.97;;;3.30;;
78844;SDS011;68195;50.854;2.860;2023-04-25T06:29:23;7.15;;;3.20;;
78844;SDS011;68195;50.854;2.860;2023-04-25T06:31:48;7.60;;;3.15;;
78844;SDS011;68195;50.854;2.860;2023-04-25T06:34:17;8.65;;;3.03;;
78844;SDS011;68195;50.854;2.860;2023-04-25T06:36:42;13.32;;;3.20;;
78844;SDS011;68195;50.854;2.860;2023-04-25T06:39:10;8.35;;;2.80;;
78844;SDS011;68195;50.854;2.860;2023-04-25T06:41:35;9.90;;;2.92;;
78844;SDS011;68195;50.854;2.860;2023-04-25T06:44:01;11.15;;;2.70;;
78844;SDS011;68195;50.854;2.860;2023-04-25T06:46:26;10.00;;;3.05;;
78844;SDS011;68195;50.854;2.860;2023-04-25T06:48:52;10.32;;;3.45;;
78844;SDS011;68195;50.854;2.860;2023-04-25T06:51:17;10.68;;;3.33;;
78844;SDS011;68195;50.854;2.860;2023-04-25T06:53:43;8.75;;;2.95;;
78844;SDS011;68195;50.854;2.860;2023-04-25T06:56:08;6.53;;;2.60;;
78844;SDS011;68195;50.854;2.860;2023-04-25T06:58:33;8.75;;;2.83;;
78844;SDS011;68195;50.854;2.860;2023-04-25T07:00:59;4.82;;;1.90;;
78844;SDS011;68195;50.854;2.860;2023-04-25T07:03:24;7.25;;;2.97;;
78844;SDS011;68195;50.854;2.860;2023-04-25T07:05:52;7.18;;;3.47;;
78844;SDS011;68195;50.854;2.860;2023-04-25T07:08:20;7.65;;;3.22;;
78844;SDS011;68195;50.854;2.860;2023-04-25T07:10:46;8.60;;;2.72;;
78844;SDS011;68195;50.854;2.860;2023-04-25T07:13:11;10.38;;;2.97;;
78844;SDS011;68195;50.854;2.860;2023-04-25T07:15:39;9.68;;;2.63;;
78844;SDS011;68195;50.854;2.860;2023-04-25T07:18:04;10.00;;;2.97;;
78844;SDS011;68195;50.854;2.860;2023-04-25T07:20:30;10.82;;;2.90;;
78844;SDS011;68195;50.854;2.860;2023-04-25T07:22:56;7.65;;;2.47;;
78844;SDS011;68195;50.854;2.860;2023-04-25T07:25:23;3.67;;;2.08;;
78844;SDS011;68195;50.854;2.860;2023-04-25T07:27:53;7.97;;;2.60;;
78844;SDS011;68195;50.854;2.860;2023-04-25T07:30:19;5.43;;;2.65;;
78844;SDS011;68195;50.854;2.860;2023-04-25T07:32:44;8.52;;;2.65;;
78844;SDS011;68195;50.854;2.860;2023-04-25T07:35:10;7.32;;;2.67;;
78844;SDS011;68195;50.854;2.860;2023-04-25T07:37:35;7.18;;;2.38;;
78844;SDS011;68195;50.854;2.860;2023-04-25T07:40:04;10.32;;;2.40;;
78844;SDS011;68195;50.854;2.860;2023-04-25T07:42:30;4.03;;;1.65;;
78844;SDS011;68195;50.854;2.860;2023-04-25T07:44:57;5.68;;;2.00;;
78844;SDS011;68195;50.854;2.860;2023-04-25T07:47:23;3.38;;;1.65;;
78844;SDS011;68195;50.854;2.860;2023-04-25T07:49:51;7.43;;;2.33;;
78844;SDS011;68195;50.854;2.860;2023-04-25T07:52:17;9.60;;;2.10;;
78844;SDS011;68195;50.854;2.860;2023-04-25T07:54:42;5.63;;;1.60;;
78844;SDS011;68195;50.854;2.860;2023-04-25T07:57:08;4.00;;;1.70;;
78844;SDS011;68195;50.854;2.860;2023-04-25T07:59:33;3.38;;;1.88;;
78844;SDS011;68195;50.854;2.860;2023-04-25T08:02:01;5.63;;;2.03;;
78844;SDS011;68195;50.854;2.860;2023-04-25T08:04:27;4.97;;;1.95;;
78844;SDS011;68195;50.854;2.860;2023-04-25T08:06:53;3.58;;;1.83;;
78844;SDS011;68195;50.854;2.860;2023-04-25T08:09:21;5.28;;;1.85;;
78844;SDS011;68195;50.854;2.860;2023-04-25T08:11:49;7.10;;;2.00;;
78844;SDS011;68195;50.854;2.860;2023-04-25T08:14:14;3.72;;;1.50;;
78844;SDS011;68195;50.854;2.860;2023-04-25T08:16:44;3.38;;;1.38;;
78844;SDS011;68195;50.854;2.860;2023-04-25T08:19:10;4.28;;;1.00;;
78844;SDS011;68195;50.854;2.860;2023-04-25T08:21:38;3.33;;;1.63;;
78844;SDS011;68195;50.854;2.860;2023-04-25T08:24:03;3.67;;;1.20;;
78844;SDS011;68195;50.854;2.860;2023-04-25T08:26:31;3.22;;;1.13;;
78844;SDS011;68195;50.854;2.860;2023-04-25T08:28:57;4.60;;;1.40;;
78844;SDS011;68195;50.854;2.860;2023-04-25T08:31:25;4.22;;;1.48;;
78844;SDS011;68195;50.854;2.860;2023-04-25T08:33:50;4.75;;;1.35;;
78844;SDS011;68195;50.854;2.860;2023-04-25T08:36:18;2.85;;;1.52;;
78844;SDS011;68195;50.854;2.860;2023-04-25T08:38:43;6.10;;;1.58;;
78844;SDS011;68195;50.854;2.860;2023-04-25T08:41:09;6.80;;;1.50;;
78844;SDS011;68195;50.854;2.860;2023-04-25T08:43:36;4.90;;;2.08;;
78844;SDS011;68195;50.854;2.860;2023-04-25T08:46:02;3.92;;;1.30;;
78844;SDS011;68195;50.854;2.860;2023-04-25T08:48:28;3.90;;;1.48;;
78844;SDS011;68195;50.854;2.860;2023-04-25T08:50:57;3.28;;;1.38;;
78844;SDS011;68195;50.854;2.860;2023-04-25T08:53:30;2.28;;;1.33;;
78844;SDS011;68195;50.854;2.860;2023-04-25T08:56:00;3.72;;;1.23;;
78844;SDS011;68195;50.854;2.860;2023-04-25T08:58:30;5.15;;;1.48;;
78844;SDS011;68195;50.854;2.860;2023-04-25T09:00:57;4.57;;;1.25;;
78844;SDS011;68195;50.854;2.860;2023-04-25T09:03:22;5.05;;;1.88;;
78844;SDS011;68195;50.854;2.860;2023-04-25T09:05:48;10.77;;;1.65;;
78844;SDS011;68195;50.854;2.860;2023-04-25T09:08:15;5.43;;;1.58;;
78844;SDS011;68195;50.854;2.860;2023-04-25T09:10:40;6.65;;;1.67;;
78844;SDS011;68195;50.854;2.860;2023-04-25T09:13:06;4.60;;;1.63;;
78844;SDS011;68195;50.854;2.860;2023-04-25T09:15:35;4.63;;;1.98;;
78844;SDS011;68195;50.854;2.860;2023-04-25T09:18:21;5.88;;;1.80;;
78844;SDS011;68195;50.854;2.860;2023-04-25T09:20:51;5.63;;;1.50;;
78844;SDS011;68195;50.854;2.860;2023-04-25T09:23:18;6.10;;;2.28;;
78844;SDS011;68195;50.854;2.860;2023-04-25T09:25:46;4.97;;;1.90;;
78844;SDS011;68195;50.854;2.860;2023-04-25T09:28:18;3.85;;;1.55;;
78844;SDS011;68195;50.854;2.860;2023-04-25T09:30:54;4.03;;;1.58;;
78844;SDS011;68195;50.854;2.860;2023-04-25T09:33:21;3.38;;;1.55;;
78844;SDS011;68195;50.854;2.860;2023-04-25T09:36:01;2.95;;;1.38;;
78844;SDS011;68195;50.854;2.860;2023-04-25T09:38:40;5.00;;;2.08;;
78844;SDS011;68195;50.854;2.860;2023-04-25T09:41:07;3.60;;;1.45;;
78844;SDS011;68195;50.854;2.860;2023-04-25T09:43:33;4.55;;;1.27;;
78844;SDS011;68195;50.854;2.860;2023-04-25T09:46:00;5.28;;;1.70;;
78844;SDS011;68195;50.854;2.860;2023-04-25T09:48:26;6.80;;;1.30;;
78844;SDS011;68195;50.854;2.860;2023-04-25T09:51:04;6.40;;;1.77;;
78844;SDS011;68195;50.854;2.860;2023-04-25T09:53:34;2.55;;;1.45;;
78844;SDS011;68195;50.854;2.860;2023-04-25T09:56:02;5.78;;;1.30;;
78844;SDS011;68195;50.854;2.860;2023-04-25T09:58:30;5.28;;;1.35;;
78844;SDS011;68195;50.854;2.860;2023-04-25T10:01:02;2.63;;;1.23;;
78844;SDS011;68195;50.854;2.860;2023-04-25T10:03:30;2.45;;;1.05;;
78844;SDS011;68195;50.854;2.860;2023-04-25T10:05:59;3.75;;;1.75;;
78844;SDS011;68195;50.854;2.860;2023-04-25T10:08:25;5.75;;;1.52;;
78844;SDS011;68195;50.854;2.860;2023-04-25T10:10:58;4.15;;;1.45;;
78844;SDS011;68195;50.854;2.860;2023-04-25T10:13:25;4.85;;;1.17;;
78844;SDS011;68195;50.854;2.860;2023-04-25T10:15:52;2.63;;;1.52;;
78844;SDS011;68195;50.854;2.860;2023-04-25T10:18:19;1.98;;;0.93;;
78844;SDS011;68195;50.854;2.860;2023-04-25T10:20:47;1.80;;;1.25;;
78844;SDS011;68195;50.854;2.860;2023-04-25T10:23:18;5.28;;;1.40;;
78844;SDS011;68195;50.854;2.860;2023-04-25T10:25:47;4.72;;;1.33;;
78844;SDS011;68195;50.854;2.860;2023-04-25T10:28:16;3.42;;;1.10;;
78844;SDS011;68195;50.854;2.860;2023-04-25T10:31:00;2.05;;;0.98;;
78844;SDS011;68195;50.854;2.860;2023-04-25T10:33:37;5.82;;;1.73;;
78844;SDS011;68195;50.854;2.860;2023-04-25T10:36:14;5.07;;;1.25;;
78844;SDS011;68195;50.854;2.860;2023-04-25T10:38:45;6.68;;;1.45;;
78844;SDS011;68195;50.854;2.860;2023-04-25T10:41:13;5.45;;;1.50;;
78844;SDS011;68195;50.854;2.860;2023-04-25T10:44:21;4.40;;;1.58;;
78844;SDS011;68195;50.854;2.860;2023-04-25T10:46:29;5.13;;;1.88;;
78844;SDS011;68195;50.854;2.860;2023-04-25T10:49:00;4.20;;;1.63;;
78844;SDS011;68195;50.854;2.860;2023-04-25T10:59:02;7.78;;;1.65;;
78844;SDS011;68195;50.854;2.860;2023-04-25T11:01:28;3.67;;;1.30;;
78844;SDS011;68195;50.854;2.860;2023-04-25T11:04:01;3.05;;;1.88;;
78844;SDS011;68195;50.854;2.860;2023-04-25T11:09:11;4.80;;;1.13;;
78844;SDS011;68195;50.854;2.860;2023-04-25T11:14:05;6.43;;;1.70;;
78844;SDS011;68195;50.854;2.860;2023-04-25T11:16:31;5.72;;;1.98;;
78844;SDS011;68195;50.854;2.860;2023-04-25T11:18:57;5.05;;;1.42;;
78844;SDS011;68195;50.854;2.860;2023-04-25T11:21:25;3.55;;;1.08;;
78844;SDS011;68195;50.854;2.860;2023-04-25T11:23:54;5.75;;;1.65;;
78844;SDS011;68195;50.854;2.860;2023-04-25T11:26:24;3.78;;;1.40;;
78844;SDS011;68195;50.854;2.860;2023-04-25T11:28:49;4.57;;;2.05;;
78844;SDS011;68195;50.854;2.860;2023-04-25T11:31:15;2.60;;;1.30;;
78844;SDS011;68195;50.854;2.860;2023-04-25T11:33:40;5.25;;;1.23;;
78844;SDS011;68195;50.854;2.860;2023-04-25T11:36:07;3.10;;;1.10;;
78844;SDS011;68195;50.854;2.860;2023-04-25T11:38:32;4.82;;;1.38;;
78844;SDS011;68195;50.854;2.860;2023-04-25T11:40:59;6.88;;;1.77;;
78844;SDS011;68195;50.854;2.860;2023-04-25T11:43:25;2.88;;;1.10;;
78844;SDS011;68195;50.854;2.860;2023-04-25T11:45:50;4.95;;;1.75;;
78844;SDS011;68195;50.854;2.860;2023-04-25T11:48:17;3.80;;;1.48;;
78844;SDS011;68195;50.854;2.860;2023-04-25T11:50:43;6.57;;;1.50;;
78844;SDS011;68195;50.854;2.860;2023-04-25T11:53:11;6.53;;;1.40;;
78844;SDS011;68195;50.854;2.860;2023-04-25T11:55:39;3.58;;;1.40;;
78844;SDS011;68195;50.854;2.860;2023-04-25T11:58:06;3.60;;;1.30;;
78844;SDS011;68195;50.854;2.860;2023-04-25T12:00:33;3.13;;;1.40;;
78844;SDS011;68195;50.854;2.860;2023-04-25T12:03:01;3.47;;;1.08;;
78844;SDS011;68195;50.854;2.860;2023-04-25T12:05:28;3.53;;;1.40;;
78844;SDS011;68195;50.854;2.860;2023-04-25T12:07:55;7.45;;;1.23;;
78844;SDS011;68195;50.854;2.860;2023-04-25T12:10:21;3.97;;;1.30;;
78844;SDS011;68195;50.854;2.860;2023-04-25T12:12:50;4.72;;;1.40;;
78844;SDS011;68195;50.854;2.860;2023-04-25T12:15:16;3.40;;;1.40;;
78844;SDS011;68195;50.854;2.860;2023-04-25T12:17:47;4.97;;;1.38;;
78844;SDS011;68195;50.854;2.860;2023-04-25T12:20:14;1.65;;;1.13;;
78844;SDS011;68195;50.854;2.860;2023-04-25T12:22:42;6.70;;;1.45;;
78844;SDS011;68195;50.854;2.860;2023-04-25T12:25:10;3.38;;;1.42;;
78844;SDS011;68195;50.854;2.860;2023-04-25T12:28:08;3.70;;;1.73;;
78844;SDS011;68195;50.854;2.860;2023-04-25T12:30:51;4.18;;;1.75;;
78844;SDS011;68195;50.854;2.860;2023-04-25T12:33:23;3.90;;;1.50;;
78844;SDS011;68195;50.854;2.860;2023-04-25T12:35:58;7.40;;;1.77;;
78844;SDS011;68195;50.854;2.860;2023-04-25T12:38:28;4.75;;;1.60;;
78844;SDS011;68195;50.854;2.860;2023-04-25T12:41:00;1.80;;;1.30;;
78844;SDS011;68195;50.854;2.860;2023-04-25T12:43:26;5.05;;;1.45;;
78844;SDS011;68195;50.854;2.860;2023-04-25T12:45:54;2.67;;;1.30;;
78844;SDS011;68195;50.854;2.860;2023-04-25T12:48:20;4.03;;;1.35;;
78844;SDS011;68195;50.854;2.860;2023-04-25T12:50:49;4.35;;;1.33;;
78844;SDS011;68195;50.854;2.860;2023-04-25T12:53:16;10.25;;;2.30;;
78844;SDS011;68195;50.854;2.860;2023-04-25T12:55:45;4.25;;;2.30;;
78844;SDS011;68195;50.854;2.860;2023-04-25T12:58:12;6.18;;;1.80;;
78844;SDS011;68195;50.854;2.860;2023-04-25T13:00:41;3.25;;;1.35;;
78844;SDS011;68195;50.854;2.860;2023-04-25T13:03:08;6.20;;;1.80;;
78844;SDS011;68195;50.854;2.860;2023-04-25T13:05:34;3.65;;;1.27;;
78844;SDS011;68195;50.854;2.860;2023-04-25T13:08:00;4.38;;;1.40;;
78844;SDS011;68195;50.854;2.860;2023-04-25T13:10:26;2.13;;;1.13;;
78844;SDS011;68195;50.854;2.860;2023-04-25T13:12:51;4.32;;;1.30;;
78844;SDS011;68195;50.854;2.860;2023-04-25T13:15:21;6.38;;;1.30;;
78844;SDS011;68195;50.854;2.860;2023-04-25T13:17:47;4.85;;;1.30;;
78844;SDS011;68195;50.854;2.860;2023-04-25T13:20:13;3.33;;;1.10;;
78844;SDS011;68195;50.854;2.860;2023-04-25T13:22:40;4.20;;;1.40;;
78844;SDS011;68195;50.854;2.860;2023-04-25T13:25:06;4.15;;;1.60;;
78844;SDS011;68195;50.854;2.860;2023-04-25T13:27:33;9.38;;;1.67;;
78844;SDS011;68195;50.854;2.860;2023-04-25T13:30:03;2.05;;;1.33;;
78844;SDS011;68195;50.854;2.860;2023-04-25T13:32:33;3.30;;;1.20;;
78844;SDS011;68195;50.854;2.860;2023-04-25T13:34:59;4.60;;;1.65;;
78844;SDS011;68195;50.854;2.860;2023-04-25T13:37:27;2.42;;;1.50;;
78844;SDS011;68195;50.854;2.860;2023-04-25T13:39:54;4.45;;;1.70;;
78844;SDS011;68195;50.854;2.860;2023-04-25T13:42:20;2.72;;;1.20;;
78844;SDS011;68195;50.854;2.860;2023-04-25T13:44:46;3.95;;;1.23;;
78844;SDS011;68195;50.854;2.860;2023-04-25T13:47:11;3.45;;;1.70;;
78844;SDS011;68195;50.854;2.860;2023-04-25T13:49:37;11.95;;;1.90;;
78844;SDS011;68195;50.854;2.860;2023-04-25T13:52:04;5.07;;;1.23;;
78844;SDS011;68195;50.854;2.860;2023-04-25T13:54:30;6.10;;;1.40;;
78844;SDS011;68195;50.854;2.860;2023-04-25T13:56:55;3.80;;;1.80;;
78844;SDS011;68195;50.854;2.860;2023-04-25T13:59:24;6.10;;;1.63;;
78844;SDS011;68195;50.854;2.860;2023-04-25T14:01:53;6.13;;;1.70;;
78844;SDS011;68195;50.854;2.860;2023-04-25T14:04:18;7.10;;;1.85;;
78844;SDS011;68195;50.854;2.860;2023-04-25T14:06:44;6.28;;;1.75;;
78844;SDS011;68195;50.854;2.860;2023-04-25T14:09:09;5.85;;;2.17;;
78844;SDS011;68195;50.854;2.860;2023-04-25T14:11:38;4.25;;;1.70;;
78844;SDS011;68195;50.854;2.860;2023-04-25T14:14:04;6.47;;;1.90;;
78844;SDS011;68195;50.854;2.860;2023-04-25T14:16:32;6.82;;;1.52;;
78844;SDS011;68195;50.854;2.860;2023-04-25T14:18:58;5.97;;;1.60;;
78844;SDS011;68195;50.854;2.860;2023-04-25T14:21:24;3.28;;;1.20;;
78844;SDS011;68195;50.854;2.860;2023-04-25T14:23:50;3.33;;;1.23;;
78844;SDS011;68195;50.854;2.860;2023-04-25T14:26:15;7.00;;;1.38;;
78844;SDS011;68195;50.854;2.860;2023-04-25T14:28:41;5.75;;;1.60;;
78844;SDS011;68195;50.854;2.860;2023-04-25T14:31:09;8.52;;;1.70;;
78844;SDS011;68195;50.854;2.860;2023-04-25T14:33:39;3.65;;;1.40;;
78844;SDS011;68195;50.854;2.860;2023-04-25T14:36:09;4.43;;;1.98;;
78844;SDS011;68195;50.854;2.860;2023-04-25T14:38:35;2.40;;;1.20;;
78844;SDS011;68195;50.854;2.860;2023-04-25T14:41:03;6.15;;;1.63;;
78844;SDS011;68195;50.854;2.860;2023-04-25T14:43:28;2.92;;;1.67;;
78844;SDS011;68195;50.854;2.860;2023-04-25T14:45:56;4.65;;;1.73;;
78844;SDS011;68195;50.854;2.860;2023-04-25T14:48:24;4.47;;;1.20;;
78844;SDS011;68195;50.854;2.860;2023-04-25T14:50:52;6.60;;;1.50;;
78844;SDS011;68195;50.854;2.860;2023-04-25T14:53:17;4.82;;;1.80;;
78844;SDS011;68195;50.854;2.860;2023-04-25T14:55:43;6.18;;;1.75;;